»·PEaware :: ACA258 KSFO-CYVR

ACA258 :: KSFO-CYVR

FLIGHT INFORMATION

Flight Status: Arrived
Operator:
Air Canada
More flights by this operator :: More flights under this callsign
Pilot: Brad M. (22842)
Aircraft: AIRBUS A330-300
(A333)
More flights by this aircraft type
Origin: KSFO San Francisco Intl
United States
Destination: CYVR Vancouver Intl
Canada
More flights between these airports :: More routes between these airports
Route: +SNTNA2 DEDHD RBL 4407N12213W PAE GRIZZ6
File this flight plan on PilotEdge
Remarks:
Altitude:
(Current/Filed)
38,000ft
Speed:
(Current/Filed)
468kts
Departed: 10-Dec-19 03:46 PM
Arrived: 10-Dec-19 05:31 PM
Distance/Time
Traveled:
696nm/1:45
Distance/Time
To Go:
Arrived

Flight Plot

Page will automatically refresh every two minutes.

Flight plan parsing failed; only flown route is shown


Map Options




Map Legend


Flown Route
Filed Route
Departure Airport
Arrival Airport
Navaid (VOR, NDB)
Fix

Horizontal Profiles

Position Reports

Time Latitude Longitude Heading Altitude Ground
Speed
10-Dec-19 14:55 37.617646 -122.392514 26 30ft 0kts
10-Dec-19 14:56 37.617646 -122.392514 26 30ft 0kts
10-Dec-19 14:57 37.617646 -122.392514 26 30ft 0kts
10-Dec-19 14:58 37.617646 -122.392514 26 30ft 0kts
10-Dec-19 14:59 37.617646 -122.392514 26 30ft 0kts
10-Dec-19 15:00 37.617646 -122.392514 26 30ft 0kts
10-Dec-19 15:01 37.617646 -122.392514 26 30ft 0kts
10-Dec-19 15:02 37.617646 -122.392514 26 30ft 0kts
10-Dec-19 15:03 37.617646 -122.392514 26 30ft 0kts
10-Dec-19 15:04 37.617646 -122.392514 26 30ft 0kts
10-Dec-19 15:05 37.617646 -122.392514 26 30ft 0kts
10-Dec-19 15:06 37.617646 -122.392514 26 30ft 0kts
10-Dec-19 15:07 37.617646 -122.392514 26 30ft 0kts
10-Dec-19 15:08 37.617646 -122.392514 26 30ft 0kts
10-Dec-19 15:09 37.617646 -122.392514 26 30ft 0kts
10-Dec-19 15:10 37.617646 -122.392514 26 30ft 0kts
10-Dec-19 15:11 37.617646 -122.392514 26 30ft 0kts
10-Dec-19 15:12 37.617646 -122.392514 26 30ft 0kts
10-Dec-19 15:13 37.617646 -122.392514 26 30ft 0kts
10-Dec-19 15:14 37.617646 -122.392514 26 30ft 0kts
10-Dec-19 15:15 37.617646 -122.392514 26 30ft 0kts
10-Dec-19 15:16 37.617646 -122.392514 26 30ft 0kts
10-Dec-19 15:17 37.617646 -122.392514 26 30ft 0kts
10-Dec-19 15:18 37.617646 -122.392514 26 30ft 0kts
10-Dec-19 15:19 37.617646 -122.392514 26 30ft 0kts
10-Dec-19 15:20 37.617646 -122.392514 26 30ft 0kts
10-Dec-19 15:21 37.617646 -122.392514 26 30ft 0kts
10-Dec-19 15:22 37.617646 -122.392514 26 30ft 0kts
10-Dec-19 15:23 37.617646 -122.392514 26 30ft 0kts
10-Dec-19 15:24 37.617646 -122.392514 26 30ft 0kts
10-Dec-19 15:25 37.617646 -122.392514 26 30ft 0kts
10-Dec-19 15:26 37.617646 -122.392514 26 30ft 0kts
10-Dec-19 15:27 37.617646 -122.392514 26 30ft 0kts
10-Dec-19 15:28 37.617579 -122.392557 26 30ft 2kts
10-Dec-19 15:29 37.616969 -122.392770 320 30ft 2kts
10-Dec-19 15:30 37.616776 -122.392377 297 30ft 0kts
10-Dec-19 15:31 37.616776 -122.392377 297 30ft 0kts
10-Dec-19 15:32 37.616776 -122.392377 297 30ft 0kts
10-Dec-19 15:33 37.617480 -122.394098 296 30ft 13kts
10-Dec-19 15:34 37.619897 -122.393994 66 30ft 5kts
10-Dec-19 15:35 37.620200 -122.393497 34 30ft 0kts
10-Dec-19 15:36 37.622082 -122.392278 25 30ft 14kts
10-Dec-19 15:37 37.622700 -122.387543 117 30ft 18kts
10-Dec-19 15:38 37.620124 -122.381331 117 30ft 20kts
10-Dec-19 15:39 37.617711 -122.376726 110 30ft 15kts
10-Dec-19 15:40 37.615356 -122.370649 116 30ft 21kts
10-Dec-19 15:41 37.612135 -122.364063 115 30ft 22kts
10-Dec-19 15:42 37.610796 -122.359153 32 30ft 0kts
10-Dec-19 15:43 37.610796 -122.359153 32 30ft 0kts
10-Dec-19 15:44 37.611964 -122.358879 309 30ft 11kts
10-Dec-19 15:45 37.619331 -122.376483 297 44ft 172kts
10-Dec-19 15:46 37.647724 -122.443233 299 2533ft 255kts
10-Dec-19 15:47 37.682963 -122.523814 303 5836ft 271kts
10-Dec-19 15:48 37.753555 -122.541757 10 9057ft 289kts
10-Dec-19 15:49 37.821221 -122.480043 64 10544ft 369kts
10-Dec-19 15:50 37.901623 -122.396309 24 13404ft 392kts
10-Dec-19 15:51 38.000570 -122.331141 25 16342ft 410kts
10-Dec-19 15:52 38.104200 -122.263535 24 18822ft 429kts
10-Dec-19 15:53 38.211547 -122.194009 24 21374ft 440kts
10-Dec-19 15:54 38.324234 -122.127479 11 23563ft 450kts
10-Dec-19 15:55 38.449747 -122.121561 354 25572ft 456kts
10-Dec-19 15:57 38.577830 -122.129592 353 27375ft 467kts
10-Dec-19 15:58 38.709090 -122.138462 352 29025ft 477kts
10-Dec-19 15:59 38.842932 -122.147620 352 30435ft 487kts
10-Dec-19 16:00 38.978611 -122.156986 352 32050ft 487kts
10-Dec-19 16:01 39.113826 -122.166363 351 33703ft 484kts
10-Dec-19 16:02 39.247878 -122.175747 351 35111ft 483kts
10-Dec-19 16:03 39.382607 -122.185225 352 36368ft 483kts
10-Dec-19 16:04 39.516716 -122.194670 352 37517ft 483kts
10-Dec-19 16:05 39.651704 -122.204209 352 38034ft 486kts
10-Dec-19 16:06 39.785741 -122.213702 352 38040ft 483kts
10-Dec-19 16:07 39.920053 -122.223269 352 38038ft 483kts
10-Dec-19 16:08 40.054344 -122.232873 352 38036ft 483kts
10-Dec-19 16:09 40.188941 -122.235971 355 38036ft 485kts
10-Dec-19 16:10 40.324588 -122.235298 355 38031ft 486kts
10-Dec-19 16:11 40.460167 -122.234651 355 38020ft 487kts
10-Dec-19 16:12 40.595501 -122.234008 355 38017ft 488kts
10-Dec-19 16:13 40.731397 -122.233371 355 38012ft 489kts
10-Dec-19 16:14 40.867605 -122.232725 355 38000ft 489kts
10-Dec-19 16:14 40.981594 -122.232188 355 37985ft 491kts
10-Dec-19 16:16 41.140489 -122.231438 355 37966ft 490kts
10-Dec-19 16:17 41.277443 -122.230789 355 37958ft 492kts
10-Dec-19 16:17 41.391129 -122.230247 355 37958ft 491kts
10-Dec-19 16:18 41.528105 -122.229587 355 37966ft 492kts
10-Dec-19 16:20 41.687927 -122.228823 355 37982ft 492kts
10-Dec-19 16:20 41.802222 -122.228274 355 37990ft 492kts
10-Dec-19 16:21 41.939697 -122.227611 355 37979ft 498kts
10-Dec-19 16:23 42.101444 -122.226821 355 37971ft 497kts
10-Dec-19 16:23 42.216883 -122.226252 355 37968ft 498kts
10-Dec-19 16:24 42.355175 -122.225578 355 37967ft 498kts
10-Dec-19 16:25 42.493518 -122.224897 355 37956ft 498kts
10-Dec-19 16:26 42.632410 -122.224211 355 37958ft 498kts
10-Dec-19 16:27 42.771047 -122.223522 355 37963ft 498kts
10-Dec-19 16:28 42.909688 -122.222831 355 37961ft 499kts
10-Dec-19 16:29 43.048630 -122.222135 355 37958ft 499kts
10-Dec-19 16:30 43.187852 -122.221434 355 37955ft 499kts
10-Dec-19 16:31 43.326973 -122.220729 355 37947ft 499kts
10-Dec-19 16:32 43.466005 -122.220029 355 37940ft 500kts
10-Dec-19 16:33 43.605162 -122.219309 355 37938ft 500kts
10-Dec-19 16:34 43.744610 -122.218604 355 37936ft 501kts
10-Dec-19 16:35 43.884196 -122.217883 355 37934ft 501kts
10-Dec-19 16:36 44.023575 -122.217160 355 37929ft 501kts
10-Dec-19 16:37 44.162710 -122.217262 354 37924ft 500kts
10-Dec-19 16:38 44.302013 -122.219375 354 37930ft 500kts
10-Dec-19 16:39 44.441343 -122.221491 354 37935ft 500kts
10-Dec-19 16:40 44.580242 -122.223603 354 37944ft 501kts
10-Dec-19 16:41 44.719770 -122.225729 354 37958ft 500kts
10-Dec-19 16:42 44.858841 -122.227862 354 37962ft 500kts
10-Dec-19 16:43 44.998398 -122.230012 354 37956ft 500kts
10-Dec-19 16:44 45.137944 -122.232167 354 37959ft 501kts
10-Dec-19 16:45 45.277280 -122.234339 354 37965ft 501kts
10-Dec-19 16:46 45.413257 -122.236459 354 37968ft 501kts
10-Dec-19 16:47 45.550044 -122.238609 354 37967ft 501kts
10-Dec-19 16:48 45.689381 -122.240808 354 37967ft 501kts
10-Dec-19 16:49 45.829064 -122.243023 354 37968ft 501kts
10-Dec-19 16:50 45.968375 -122.245243 354 37968ft 501kts
10-Dec-19 16:51 46.108170 -122.247483 354 37965ft 501kts
10-Dec-19 16:52 46.247784 -122.249730 354 37951ft 501kts
10-Dec-19 16:53 46.386860 -122.251987 354 37944ft 501kts
10-Dec-19 16:54 46.526638 -122.254252 354 37934ft 500kts
10-Dec-19 16:55 46.665853 -122.256537 354 37922ft 500kts
10-Dec-19 16:56 46.804992 -122.258821 354 37907ft 500kts
10-Dec-19 16:57 46.944303 -122.261106 354 37490ft 499kts
10-Dec-19 16:58 47.080043 -122.263210 352 36062ft 480kts
10-Dec-19 16:59 47.212753 -122.265431 351 34477ft 482kts
10-Dec-19 17:00 47.348008 -122.267796 351 32833ft 485kts
10-Dec-19 17:01 47.483495 -122.270181 352 31211ft 489kts
10-Dec-19 17:02 47.620177 -122.272511 352 29630ft 491kts
10-Dec-19 17:03 47.755648 -122.274822 353 27664ft 483kts
10-Dec-19 17:04 47.888250 -122.277070 353 25431ft 471kts
10-Dec-19 17:05 48.014406 -122.303327 342 23247ft 450kts
10-Dec-19 17:06 48.135770 -122.339091 343 21113ft 437kts
10-Dec-19 17:07 48.253548 -122.373763 343 19026ft 426kts
10-Dec-19 17:08 48.367829 -122.407413 343 17060ft 413kts
10-Dec-19 17:09 48.479055 -122.440253 344 15047ft 402kts
10-Dec-19 17:10 48.587573 -122.472459 345 13117ft 385kts
10-Dec-19 17:11 48.684542 -122.501385 341 12287ft 332kts
10-Dec-19 17:12 48.753391 -122.584010 307 11380ft 318kts
10-Dec-19 17:13 48.811213 -122.682377 307 10544ft 300kts
10-Dec-19 17:14 48.863859 -122.773667 307 9993ft 281kts
10-Dec-19 17:15 48.915059 -122.863045 307 9982ft 281kts
10-Dec-19 17:16 48.966355 -122.952964 307 9984ft 281kts
10-Dec-19 17:17 49.017672 -123.043213 307 9989ft 281kts
10-Dec-19 17:18 49.069450 -123.137674 299 8073ft 278kts
10-Dec-19 17:19 49.094300 -123.248042 283 6036ft 265kts
10-Dec-19 17:20 49.113446 -123.355304 283 5335ft 261kts
10-Dec-19 17:21 49.131606 -123.459261 283 4775ft 229kts
10-Dec-19 17:22 49.147328 -123.550147 283 4468ft 219kts
10-Dec-19 17:23 49.185661 -123.603933 18 4149ft 212kts
10-Dec-19 17:24 49.228578 -123.546017 46 3231ft 206kts
10-Dec-19 17:25 49.233494 -123.462718 94 2981ft 204kts
10-Dec-19 17:26 49.225707 -123.381818 99 2372ft 183kts
10-Dec-19 17:27 49.217499 -123.309368 99 1443ft 153kts
10-Dec-19 17:28 49.210995 -123.252675 99 709ft 128kts
10-Dec-19 17:29 49.204934 -123.199187 99 47ft 125kts
10-Dec-19 17:30 49.201778 -123.176286 126 31ft 29kts
10-Dec-19 17:31 49.200445 -123.173765 130 31ft 0kts
10-Dec-19 17:32 49.200233 -123.173398 135 31ft 6kts
10-Dec-19 17:33 49.199236 -123.176333 278 31ft 15kts
10-Dec-19 17:34 49.198683 -123.178554 222 31ft 0kts
10-Dec-19 17:35 49.198683 -123.178554 222 31ft 0kts
10-Dec-19 17:36 49.198683 -123.178554 222 31ft 0kts
10-Dec-19 17:37 49.198683 -123.178554 222 31ft 0kts

Navigation Log

Ident Type
Flight plan parsing failed, navigation log unavailable